Time;durP1;ratioP1;P1;durP2;ratioP2;P2;SDS_P1;SDS_P2;PMS_P1;PMS_P2;Temp;Humidity;BMP_temperature;BMP_pressure;BME280_temperature;BME280_humidity;BME280_pressure;Samples;Min_cycle;Max_cycle;Signal;HPM_P1;HPM_P2
2022/02/18 00:00:21;;;;;;;12.38;2.15;;;7.80;99.50;;;;;;5067633;28;20032;-63
2022/02/18 00:02:47;;;;;;;11.45;2.47;;;7.80;99.60;;;;;;5070209;28;20103;-63
2022/02/18 00:05:13;;;;;;;10.80;1.95;;;7.80;99.70;;;;;;5070347;28;20036;-63
2022/02/18 00:07:38;;;;;;;11.45;1.92;;;7.80;99.70;;;;;;5070129;28;20028;-63
2022/02/18 00:10:05;;;;;;;12.57;2.05;;;7.80;99.70;;;;;;5070010;28;20028;-63
2022/02/18 00:12:30;;;;;;;13.75;2.13;;;7.80;99.70;;;;;;5069924;28;20038;-63
2022/02/18 00:14:56;;;;;;;9.20;1.85;;;7.80;99.80;;;;;;5069909;28;20028;-63
2022/02/18 00:17:21;;;;;;;8.85;1.83;;;7.80;99.90;;;;;;5070008;28;20098;-63
2022/02/18 00:19:47;;;;;;;12.43;1.98;;;7.80;99.90;;;;;;5069580;28;20035;-63
2022/02/18 00:22:13;;;;;;;12.40;1.80;;;7.80;99.90;;;;;;5070018;28;20032;-63
2022/02/18 00:24:38;;;;;;;11.13;2.25;;;7.80;99.90;;;;;;5068560;28;20455;-63
2022/02/18 00:27:04;;;;;;;16.23;2.42;;;7.80;99.90;;;;;;5069943;28;20025;-63
2022/02/18 00:29:30;;;;;;;12.23;1.80;;;7.90;99.90;;;;;;5070042;28;20028;-63
2022/02/18 00:31:55;;;;;;;14.80;2.28;;;7.90;99.90;;;;;;5069507;28;20033;-63
2022/02/18 00:34:21;;;;;;;11.38;1.80;;;7.90;99.90;;;;;;5069738;28;20100;-63
2022/02/18 00:36:46;;;;;;;11.25;1.80;;;7.90;99.90;;;;;;5066975;28;20021;-63
2022/02/18 00:39:12;;;;;;;12.90;2.45;;;7.90;99.90;;;;;;5069441;28;20381;-63
2022/02/18 00:41:38;;;;;;;15.50;2.13;;;7.90;99.90;;;;;;5069333;28;20476;-63
2022/02/18 00:44:04;;;;;;;8.95;2.20;;;7.90;99.90;;;;;;5069406;28;20054;-63
2022/02/18 00:46:30;;;;;;;12.73;2.20;;;7.90;99.90;;;;;;5069962;28;20099;-63
2022/02/18 00:48:56;;;;;;;17.48;3.15;;;7.90;99.90;;;;;;5069725;28;20548;-63
2022/02/18 00:51:21;;;;;;;15.00;2.35;;;7.90;99.90;;;;;;5069381;28;20024;-63
2022/02/18 00:53:47;;;;;;;11.75;1.75;;;7.90;99.90;;;;;;5069093;28;20031;-63
2022/02/18 00:56:13;;;;;;;10.13;1.63;;;8.00;99.90;;;;;;5069714;28;20844;-63
2022/02/18 00:58:38;;;;;;;10.27;1.85;;;7.90;99.90;;;;;;5069281;28;20032;-63
2022/02/18 01:01:05;;;;;;;12.57;2.30;;;8.00;99.90;;;;;;5069230;28;20085;-63
2022/02/18 01:03:30;;;;;;;11.10;1.77;;;8.00;99.90;;;;;;5062366;28;20027;-63
2022/02/18 01:05:56;;;;;;;9.55;1.55;;;8.00;99.90;;;;;;5069009;28;20013;-63
2022/02/18 01:08:21;;;;;;;10.13;1.75;;;8.00;99.80;;;;;;5063414;28;20027;-63
2022/02/18 01:10:47;;;;;;;14.50;1.75;;;7.90;99.80;;;;;;5066105;28;20120;-63
2022/02/18 01:13:13;;;;;;;9.65;2.25;;;7.90;99.80;;;;;;5068321;28;20024;-63
2022/02/18 01:15:38;;;;;;;11.20;1.70;;;7.90;99.70;;;;;;5070080;28;20047;-63
2022/02/18 01:18:04;;;;;;;14.40;1.70;;;7.90;99.70;;;;;;5068896;28;20024;-63
2022/02/18 01:20:30;;;;;;;12.48;2.10;;;7.90;99.90;;;;;;5068628;28;20090;-63
2022/02/18 01:22:56;;;;;;;13.27;2.13;;;7.90;99.70;;;;;;5068633;28;20029;-63
2022/02/18 01:25:22;;;;;;;13.85;1.85;;;7.90;99.60;;;;;;5068767;28;20025;-63
2022/02/18 01:27:47;;;;;;;7.63;1.73;;;7.90;99.60;;;;;;5068974;28;20025;-63
2022/02/18 01:30:13;;;;;;;15.55;1.95;;;7.90;99.60;;;;;;5068739;28;20036;-63
2022/02/18 01:32:39;;;;;;;10.73;2.45;;;7.90;99.70;;;;;;5068500;28;20028;-63
2022/02/18 01:35:05;;;;;;;17.13;3.67;;;7.90;99.70;;;;;;5059057;28;20033;-63
2022/02/18 01:37:31;;;;;;;18.02;3.00;;;7.90;99.70;;;;;;5068699;28;20066;-63
2022/02/18 01:39:56;;;;;;;18.60;3.88;;;7.90;99.70;;;;;;5068341;28;20024;-63
2022/02/18 01:42:22;;;;;;;13.18;2.75;;;7.90;99.80;;;;;;5068796;28;20031;-63
2022/02/18 01:44:49;;;;;;;14.07;2.15;;;7.80;99.80;;;;;;5068876;28;20514;-63
2022/02/18 01:47:20;;;;;;;10.70;2.78;;;7.80;99.90;;;;;;5068281;28;20559;-63
2022/02/18 01:49:48;;;;;;;13.88;2.67;;;7.80;99.90;;;;;;5068557;28;20035;-63
2022/02/18 01:52:16;;;;;;;17.05;2.78;;;7.80;99.90;;;;;;5065140;28;20032;-63
2022/02/18 01:54:42;;;;;;;14.32;2.72;;;7.80;99.90;;;;;;5069852;28;20043;-63
2022/02/18 01:57:08;;;;;;;10.30;2.47;;;7.80;99.90;;;;;;5068683;28;20013;-63
2022/02/18 01:59:34;;;;;;;16.50;3.13;;;7.80;99.90;;;;;;5068641;28;20032;-63
2022/02/18 02:01:59;;;;;;;10.85;2.67;;;7.80;99.90;;;;;;5068428;28;20028;-63
2022/02/18 02:04:26;;;;;;;17.10;3.08;;;7.80;99.90;;;;;;5067054;28;20029;-63
2022/02/18 02:06:57;;;;;;;15.32;3.92;;;7.90;99.90;;;;;;5068593;28;20020;-63
2022/02/18 02:09:23;;;;;;;14.65;3.53;;;7.80;99.90;;;;;;5064326;28;20396;-63
2022/02/18 02:11:49;;;;;;;13.65;3.00;;;7.80;99.90;;;;;;5068493;28;20036;-63
2022/02/18 02:14:14;;;;;;;14.27;2.88;;;7.90;99.90;;;;;;5070407;28;20548;-63
2022/02/18 02:16:41;;;;;;;17.05;3.83;;;7.80;99.90;;;;;;5071134;28;20028;-63
2022/02/18 02:19:06;;;;;;;17.52;3.13;;;7.80;99.90;;;;;;5072406;28;20044;-63
2022/02/18 02:21:32;;;;;;;18.33;2.95;;;7.80;99.90;;;;;;5071794;28;20088;-63
2022/02/18 02:23:58;;;;;;;18.13;4.80;;;7.80;99.90;;;;;;5071847;28;20488;-63
2022/02/18 02:26:24;;;;;;;13.95;3.38;;;7.80;99.90;;;;;;5070652;28;20078;-64
2022/02/18 02:28:49;;;;;;;20.65;4.35;;;7.70;99.90;;;;;;5072261;28;20475;-63
2022/02/18 02:31:15;;;;;;;23.02;4.47;;;7.70;99.90;;;;;;5072123;28;20035;-63
2022/02/18 02:33:40;;;;;;;13.60;3.33;;;7.70;99.90;;;;;;5071914;28;20476;-63
2022/02/18 02:36:06;;;;;;;17.13;5.18;;;7.70;99.90;;;;;;5071805;28;20043;-63
2022/02/18 02:38:32;;;;;;;15.05;3.08;;;7.70;99.90;;;;;;5072003;28;20529;-63
2022/02/18 02:40:57;;;;;;;19.25;3.28;;;7.60;99.90;;;;;;5070088;28;20024;-63
2022/02/18 02:43:23;;;;;;;16.90;3.63;;;7.60;99.90;;;;;;5071878;28;20067;-63
2022/02/18 02:45:49;;;;;;;14.32;3.75;;;7.60;99.90;;;;;;5071751;28;20032;-63
2022/02/18 02:48:15;;;;;;;14.27;3.08;;;7.60;99.90;;;;;;5071681;28;20111;-63
2022/02/18 02:50:41;;;;;;;18.83;4.65;;;7.60;99.90;;;;;;5067390;28;20102;-63
2022/02/18 02:53:07;;;;;;;15.25;3.40;;;7.50;99.90;;;;;;5070370;28;20024;-63
2022/02/18 02:55:32;;;;;;;14.65;3.63;;;7.50;99.90;;;;;;5071309;28;20025;-63
2022/02/18 02:57:58;;;;;;;18.33;3.60;;;7.50;99.90;;;;;;5071142;28;20059;-63
2022/02/18 03:00:23;;;;;;;19.45;4.82;;;7.40;99.90;;;;;;5071582;28;20053;-63
2022/02/18 03:02:49;;;;;;;19.42;3.35;;;7.40;99.90;;;;;;5071412;28;20464;-63
2022/02/18 03:05:14;;;;;;;19.42;4.57;;;7.40;99.90;;;;;;5070949;28;20020;-63
2022/02/18 03:07:41;;;;;;;17.08;3.25;;;7.40;99.90;;;;;;5068627;28;20472;-63
2022/02/18 03:10:07;;;;;;;17.55;3.47;;;7.40;99.90;;;;;;5071151;28;20020;-63
2022/02/18 03:12:33;;;;;;;18.33;3.13;;;7.30;99.90;;;;;;5070031;28;20454;-63
2022/02/18 03:14:59;;;;;;;21.25;4.40;;;7.30;99.90;;;;;;5071038;28;20099;-63
2022/02/18 03:17:26;;;;;;;23.70;4.07;;;7.30;99.90;;;;;;5069838;28;20786;-63
2022/02/18 03:19:51;;;;;;;20.15;3.25;;;7.40;99.90;;;;;;5070758;28;20068;-63
2022/02/18 03:22:17;;;;;;;19.90;3.20;;;7.40;99.90;;;;;;5070941;28;20044;-63
2022/02/18 03:24:43;;;;;;;15.65;3.38;;;7.40;99.90;;;;;;5070783;28;20024;-63
2022/02/18 03:27:09;;;;;;;23.33;4.10;;;7.40;99.90;;;;;;5070341;28;20036;-63
2022/02/18 03:29:34;;;;;;;18.05;3.47;;;7.40;99.90;;;;;;5071183;28;20111;-64
2022/02/18 03:32:01;;;;;;;21.55;3.25;;;7.40;99.90;;;;;;5070954;28;20019;-63
2022/02/18 03:34:27;;;;;;;19.63;3.75;;;7.40;99.90;;;;;;5066804;28;20025;-63
2022/02/18 03:36:52;;;;;;;22.73;3.55;;;7.40;99.90;;;;;;5070949;28;20031;-63
2022/02/18 03:39:18;;;;;;;21.85;4.28;;;7.40;99.90;;;;;;5066748;28;20365;-63
2022/02/18 03:41:43;;;;;;;22.00;3.97;;;7.40;99.90;;;;;;5069317;28;20020;-64
2022/02/18 03:44:09;;;;;;;21.88;4.05;;;7.50;99.90;;;;;;5063828;28;20515;-63
2022/02/18 03:46:35;;;;;;;22.33;3.97;;;7.40;99.90;;;;;;5070658;28;20084;-63
2022/02/18 03:49:01;;;;;;;26.15;4.78;;;7.50;99.90;;;;;;5070298;28;20392;-63
2022/02/18 03:51:26;;;;;;;24.08;4.25;;;7.50;99.90;;;;;;5070312;28;20488;-63
2022/02/18 03:53:52;;;;;;;24.58;4.07;;;7.50;99.90;;;;;;5070767;28;20313;-63
2022/02/18 03:56:18;;;;;;;27.42;3.88;;;7.50;99.90;;;;;;5070266;28;20135;-63
2022/02/18 03:58:44;;;;;;;25.30;4.28;;;7.50;99.90;;;;;;5070491;28;20031;-63
2022/02/18 04:01:09;;;;;;;28.58;5.55;;;7.50;99.90;;;;;;5070317;28;20336;-63
2022/02/18 04:03:35;;;;;;;25.63;4.15;;;7.50;99.90;;;;;;5067476;28;20028;-63
2022/02/18 04:06:00;;;;;;;39.60;5.28;;;7.50;99.90;;;;;;5067255;28;20380;-63
2022/02/18 04:08:26;;;;;;;23.73;4.38;;;7.50;99.90;;;;;;5070458;28;20025;-63
2022/02/18 04:10:52;;;;;;;35.33;4.82;;;7.50;99.90;;;;;;5070158;28;20384;-63
2022/02/18 04:13:17;;;;;;;30.50;4.35;;;7.50;99.90;;;;;;5066194;28;20051;-63
2022/02/18 04:15:43;;;;;;;33.13;5.13;;;7.50;99.90;;;;;;5067597;28;20218;-63
2022/02/18 04:18:09;;;;;;;30.17;4.93;;;7.50;99.90;;;;;;5070321;28;20521;-63
2022/02/18 04:20:34;;;;;;;28.40;5.78;;;7.50;99.90;;;;;;5068414;28;20074;-63
2022/02/18 04:23:00;;;;;;;36.60;4.80;;;7.50;99.90;;;;;;5067086;28;20035;-63
2022/02/18 04:25:25;;;;;;;28.58;4.50;;;7.50;99.90;;;;;;5069855;28;20507;-63
2022/02/18 04:27:56;;;;;;;34.38;5.05;;;7.40;99.90;;;;;;5068326;28;20020;-63
2022/02/18 04:30:22;;;;;;;27.90;4.68;;;7.40;99.90;;;;;;5062831;28;20107;-63
2022/02/18 04:32:49;;;;;;;32.53;4.95;;;7.40;99.90;;;;;;5069601;28;20032;-63
2022/02/18 04:35:15;;;;;;;34.55;5.88;;;7.40;99.90;;;;;;5069630;28;20099;-63
2022/02/18 04:37:41;;;;;;;35.28;5.43;;;7.40;99.90;;;;;;5069313;28;20027;-63
2022/02/18 04:40:07;;;;;;;35.75;6.20;;;7.50;99.90;;;;;;5069467;28;20016;-63
2022/02/18 04:42:33;;;;;;;42.25;6.07;;;7.50;99.90;;;;;;5069579;28;20024;-63
2022/02/18 04:44:58;;;;;;;33.03;5.78;;;7.40;99.90;;;;;;5069246;28;20032;-63
2022/02/18 04:47:24;;;;;;;32.63;5.18;;;7.50;99.90;;;;;;5069285;28;20024;-63
2022/02/18 04:49:49;;;;;;;28.77;5.30;;;7.50;99.90;;;;;;5069288;28;20032;-63
2022/02/18 04:52:15;;;;;;;34.88;5.18;;;7.40;99.90;;;;;;5069577;28;20475;-63
2022/02/18 04:54:44;;;;;;;37.95;5.47;;;7.50;99.90;;;;;;5069067;28;20024;-63
2022/02/18 04:57:10;;;;;;;44.22;5.88;;;7.50;99.90;;;;;;5069409;28;20031;-63
2022/02/18 04:59:36;;;;;;;33.88;6.65;;;7.50;99.90;;;;;;5067748;28;20021;-63
2022/02/18 05:02:01;;;;;;;45.63;6.43;;;7.50;99.90;;;;;;5068929;28;20032;-63
2022/02/18 05:04:27;;;;;;;36.92;5.07;;;7.50;99.90;;;;;;5069165;28;20106;-63
2022/02/18 05:06:52;;;;;;;40.50;5.47;;;7.60;99.90;;;;;;5068934;28;20031;-63
2022/02/18 05:09:18;;;;;;;31.42;5.70;;;7.50;99.90;;;;;;5068781;28;20036;-63
2022/02/18 05:11:43;;;;;;;31.67;4.70;;;7.60;99.90;;;;;;5068826;28;20365;-63
2022/02/18 05:14:09;;;;;;;30.10;4.65;;;7.60;99.90;;;;;;5063332;28;20029;-63
2022/02/18 05:16:35;;;;;;;29.00;5.25;;;7.60;99.90;;;;;;5068917;28;20472;-63
2022/02/18 05:19:09;;;;;;;38.75;5.53;;;7.60;99.90;;;;;;5068742;28;20495;-63
2022/02/18 05:21:36;;;;;;;38.13;6.55;;;7.50;99.90;;;;;;5069018;28;20047;-63
2022/02/18 05:24:03;;;;;;;39.35;7.07;;;7.50;99.90;;;;;;5068916;28;20035;-63
2022/02/18 05:26:28;;;;;;;30.88;5.20;;;7.50;99.90;;;;;;5068868;28;20038;-63
2022/02/18 05:28:54;;;;;;;39.85;5.20;;;7.60;99.90;;;;;;5066246;28;20032;-63
2022/02/18 05:31:19;;;;;;;31.35;5.35;;;7.60;99.90;;;;;;5065903;28;20095;-63
2022/02/18 05:33:45;;;;;;;37.28;7.07;;;7.50;99.90;;;;;;5068996;28;20020;-63
2022/02/18 05:36:10;;;;;;;35.42;6.38;;;7.60;99.90;;;;;;5068818;28;20484;-63
2022/02/18 05:38:36;;;;;;;39.83;5.78;;;7.60;99.90;;;;;;5066137;28;20028;-63
2022/02/18 05:41:02;;;;;;;34.58;5.00;;;7.60;99.90;;;;;;5069171;28;20024;-63
2022/02/18 05:43:27;;;;;;;30.83;4.65;;;7.60;99.90;;;;;;5068303;28;20040;-63
2022/02/18 05:45:53;;;;;;;35.72;6.10;;;7.60;99.90;;;;;;5065902;28;20555;-63
2022/02/18 05:48:18;;;;;;;42.38;7.93;;;7.60;99.90;;;;;;5067951;28;20028;-63
2022/02/18 05:50:44;;;;;;;28.20;6.25;;;7.60;99.90;;;;;;5068662;28;20016;-63
2022/02/18 05:53:09;;;;;;;38.17;7.80;;;7.60;99.90;;;;;;5069131;28;20384;-63
2022/02/18 05:55:35;;;;;;;34.90;5.68;;;7.60;99.90;;;;;;5061873;28;20056;-63
2022/02/18 05:58:00;;;;;;;30.27;5.78;;;7.60;99.90;;;;;;5066997;28;20020;-63
2022/02/18 06:00:26;;;;;;;31.50;5.65;;;7.60;99.90;;;;;;5068564;28;20020;-63
2022/02/18 06:02:51;;;;;;;35.47;6.32;;;7.60;99.90;;;;;;5068484;28;20555;-63
2022/02/18 06:05:17;;;;;;;27.50;4.68;;;7.60;99.90;;;;;;5067288;28;20606;-63
2022/02/18 06:07:45;;;;;;;30.45;5.13;;;7.60;99.90;;;;;;5067093;28;20024;-64
2022/02/18 06:10:11;;;;;;;24.20;4.63;;;7.60;99.90;;;;;;5066946;28;20028;-64
2022/02/18 06:12:37;;;;;;;26.95;4.90;;;7.60;99.90;;;;;;5068285;28;20037;-63
2022/02/18 06:15:02;;;;;;;34.33;5.40;;;7.70;99.90;;;;;;5066870;28;20107;-63
2022/02/18 06:17:28;;;;;;;30.67;5.40;;;7.70;99.90;;;;;;5068531;28;20484;-63
2022/02/18 06:19:53;;;;;;;25.55;4.22;;;7.60;99.90;;;;;;5067995;28;20385;-63
2022/02/18 06:22:19;;;;;;;31.13;4.82;;;7.70;99.90;;;;;;5068048;28;20029;-63
2022/02/18 06:24:44;;;;;;;28.20;5.03;;;7.60;99.90;;;;;;5068318;28;20404;-63
2022/02/18 06:27:10;;;;;;;25.13;4.10;;;7.70;99.90;;;;;;5068172;28;20078;-63
2022/02/18 06:29:35;;;;;;;30.17;4.70;;;7.70;99.90;;;;;;5068349;28;20526;-63
2022/02/18 06:32:02;;;;;;;25.45;4.55;;;7.70;99.90;;;;;;5067861;28;20471;-63
2022/02/18 06:34:28;;;;;;;28.02;4.00;;;7.70;99.90;;;;;;5068298;28;20029;-63
2022/02/18 06:36:54;;;;;;;31.45;4.18;;;7.60;99.90;;;;;;5068200;28;20120;-63
2022/02/18 06:39:21;;;;;;;33.75;4.72;;;7.60;99.90;;;;;;5068127;28;20526;-63
2022/02/18 06:41:47;;;;;;;29.30;4.50;;;7.50;99.90;;;;;;5068350;28;20047;-63
2022/02/18 06:44:13;;;;;;;23.88;3.65;;;7.50;99.90;;;;;;5068344;28;20515;-63
2022/02/18 06:46:39;;;;;;;32.75;5.45;;;7.40;99.90;;;;;;5068033;28;20029;-63
2022/02/18 06:49:05;;;;;;;33.75;4.80;;;7.40;99.90;;;;;;5066812;28;20036;-63
2022/02/18 06:51:31;;;;;;;39.38;6.85;;;7.40;99.90;;;;;;5068042;28;20040;-63
2022/02/18 06:53:56;;;;;;;27.70;5.45;;;7.40;99.90;;;;;;5067805;28;20062;-63
2022/02/18 06:56:22;;;;;;;21.98;3.92;;;7.30;99.90;;;;;;5067689;28;20032;-63
2022/02/18 06:58:47;;;;;;;27.63;4.38;;;7.30;99.90;;;;;;5067953;28;20054;-63
2022/02/18 07:01:13;;;;;;;24.90;4.82;;;7.30;99.90;;;;;;5070724;28;20077;-63
2022/02/18 07:03:38;;;;;;;34.28;5.88;;;7.30;99.90;;;;;;5070092;28;20040;-63
2022/02/18 07:06:04;;;;;;;34.50;4.80;;;7.30;99.90;;;;;;5071397;28;20388;-63
2022/02/18 07:08:30;;;;;;;25.85;4.80;;;7.20;99.90;;;;;;5071625;28;20373;-63
2022/02/18 07:10:56;;;;;;;46.03;5.78;;;7.20;99.90;;;;;;5072474;28;20028;-63
2022/02/18 07:13:22;;;;;;;28.50;5.10;;;7.20;99.90;;;;;;5068860;28;20079;-63
2022/02/18 07:15:48;;;;;;;34.67;5.47;;;7.30;99.90;;;;;;5065860;28;20028;-63
2022/02/18 07:18:14;;;;;;;31.95;5.00;;;7.30;99.90;;;;;;5064640;28;20103;-63
2022/02/18 07:20:40;;;;;;;27.58;5.00;;;7.30;99.90;;;;;;5068559;28;20531;-63
2022/02/18 07:23:07;;;;;;;30.88;5.78;;;7.30;99.90;;;;;;5067302;28;20099;-63
2022/02/18 07:25:33;;;;;;;26.58;5.57;;;7.30;99.90;;;;;;5068968;28;20024;-63
2022/02/18 07:27:59;;;;;;;31.77;5.43;;;7.30;99.90;;;;;;5066557;28;20028;-63
2022/02/18 07:30:24;;;;;;;39.00;6.03;;;7.30;99.90;;;;;;5067617;28;20020;-63
2022/02/18 07:32:50;;;;;;;35.38;8.20;;;7.30;99.90;;;;;;5069980;28;20036;-63
2022/02/18 07:35:15;;;;;;;28.98;5.95;;;7.30;99.90;;;;;;5070705;28;20029;-63
2022/02/18 07:38:02;;;;;;;31.50;6.70;;;7.40;99.90;;;;;;5070327;28;20017;-63
2022/02/18 07:40:27;;;;;;;28.13;5.40;;;7.40;99.90;;;;;;5069063;28;20033;-64
2022/02/18 07:42:53;;;;;;;25.15;5.47;;;7.40;99.90;;;;;;5068664;28;20055;-63
2022/02/18 07:45:19;;;;;;;27.77;6.38;;;7.40;99.90;;;;;;5068197;28;20025;-64
2022/02/18 07:47:44;;;;;;;29.65;5.55;;;7.50;99.90;;;;;;5070375;28;20099;-63
2022/02/18 07:50:10;;;;;;;31.35;5.93;;;7.50;99.90;;;;;;5070381;28;20024;-63
2022/02/18 07:52:37;;;;;;;27.45;6.07;;;7.50;99.90;;;;;;5070231;28;20029;-63
2022/02/18 07:55:03;;;;;;;36.67;5.93;;;7.60;99.90;;;;;;5067523;28;20035;-63
2022/02/18 07:57:29;;;;;;;28.17;5.93;;;7.60;99.90;;;;;;5069191;28;20107;-63
2022/02/18 07:59:54;;;;;;;29.55;5.70;;;7.60;99.90;;;;;;5068001;28;20067;-63
2022/02/18 08:02:20;;;;;;;27.23;5.82;;;7.70;99.90;;;;;;5069618;28;20028;-63
2022/02/18 08:04:45;;;;;;;25.15;6.20;;;7.80;99.90;;;;;;5072072;28;20154;-63
2022/02/18 08:07:11;;;;;;;26.00;5.32;;;7.80;99.90;;;;;;5072563;28;20033;-63
2022/02/18 08:09:37;;;;;;;24.67;4.80;;;7.80;99.90;;;;;;5072025;28;20492;-63
2022/02/18 08:12:03;;;;;;;20.40;4.65;;;7.90;99.90;;;;;;5069872;28;20121;-64
2022/02/18 08:14:29;;;;;;;24.98;5.43;;;7.90;99.90;;;;;;5072492;28;20040;-63
2022/02/18 08:16:56;;;;;;;23.95;5.20;;;8.00;99.90;;;;;;5069508;28;20028;-64
2022/02/18 08:19:25;;;;;;;26.25;5.10;;;8.00;99.90;;;;;;5073835;28;20035;-64
2022/02/18 08:21:58;;;;;;;20.20;4.80;;;8.10;99.90;;;;;;5073555;28;20186;-64
2022/02/18 08:24:46;;;;;;;21.20;4.60;;;8.20;99.90;;;;;;5073836;28;20141;-64
2022/02/18 08:27:12;;;;;;;20.80;5.43;;;8.20;99.90;;;;;;5050428;28;20515;-63
2022/02/18 08:29:37;;;;;;;25.23;5.88;;;8.30;99.90;;;;;;5049290;28;20040;-63
2022/02/18 08:32:03;;;;;;;20.42;6.13;;;8.40;99.90;;;;;;5053228;28;20032;-63
2022/02/18 08:34:29;;;;;;;22.00;5.47;;;8.40;99.90;;;;;;5073435;28;20056;-63
2022/02/18 08:36:54;;;;;;;22.88;6.15;;;8.50;99.90;;;;;;5068875;28;20077;-63
2022/02/18 08:39:20;;;;;;;22.42;6.18;;;8.50;99.90;;;;;;5070240;28;20150;-64
2022/02/18 08:41:45;;;;;;;27.55;7.55;;;8.60;99.90;;;;;;5069424;28;20547;-64
2022/02/18 08:44:14;;;;;;;22.15;6.13;;;8.70;99.90;;;;;;5068949;28;20391;-64
2022/02/18 08:46:39;;;;;;;20.95;6.07;;;8.70;99.90;;;;;;5069193;28;20111;-64
2022/02/18 08:49:05;;;;;;;19.45;6.35;;;8.80;99.90;;;;;;5069140;28;20108;-64
2022/02/18 08:51:31;;;;;;;14.63;5.88;;;8.90;99.90;;;;;;5070506;28;20115;-64
2022/02/18 08:53:56;;;;;;;16.25;5.80;;;8.90;99.90;;;;;;5070400;28;20476;-63
2022/02/18 08:56:24;;;;;;;17.88;6.57;;;9.00;99.90;;;;;;5069997;28;20023;-64
2022/02/18 08:58:50;;;;;;;20.00;6.20;;;9.10;99.90;;;;;;5070127;28;20468;-64
2022/02/18 09:01:16;;;;;;;15.52;4.80;;;9.10;99.90;;;;;;5070604;28;20029;-64
2022/02/18 09:03:41;;;;;;;11.98;4.38;;;9.20;99.90;;;;;;5070108;28;20379;-64
2022/02/18 09:06:08;;;;;;;17.20;4.57;;;9.20;99.90;;;;;;5070147;28;20031;-64
2022/02/18 09:08:33;;;;;;;11.60;5.00;;;9.30;99.90;;;;;;5070219;28;20027;-64
2022/02/18 09:10:59;;;;;;;15.10;4.47;;;9.30;99.90;;;;;;5069635;28;20396;-64
2022/02/18 09:13:26;;;;;;;10.07;3.58;;;9.40;99.90;;;;;;5070071;28;20033;-64
2022/02/18 09:15:53;;;;;;;12.88;3.88;;;9.40;99.90;;;;;;5070176;28;20079;-64
2022/02/18 09:18:19;;;;;;;11.25;3.13;;;9.50;99.90;;;;;;5069864;28;20028;-64
2022/02/18 09:20:45;;;;;;;14.95;3.42;;;9.50;99.90;;;;;;5069692;28;20049;-64
2022/02/18 09:23:11;;;;;;;12.15;3.38;;;9.60;99.90;;;;;;5069051;28;20540;-64
2022/02/18 09:25:37;;;;;;;12.45;3.38;;;9.60;99.90;;;;;;5069885;28;20381;-64
2022/02/18 09:28:03;;;;;;;6.97;2.80;;;9.70;99.90;;;;;;5068874;28;20523;-63
2022/02/18 09:30:28;;;;;;;11.80;3.22;;;9.70;99.90;;;;;;5068301;28;20039;-64
2022/02/18 09:32:55;;;;;;;10.32;2.88;;;9.70;99.90;;;;;;5069643;28;20056;-63
2022/02/18 09:35:21;;;;;;;11.25;3.20;;;9.70;99.90;;;;;;5069548;28;20020;-64
2022/02/18 09:37:46;;;;;;;8.63;2.55;;;9.70;99.90;;;;;;5069965;28;20044;-63
2022/02/18 09:40:12;;;;;;;7.95;2.60;;;9.80;99.90;;;;;;5069792;28;20025;-64
2022/02/18 09:42:40;;;;;;;11.95;3.15;;;9.90;99.90;;;;;;5069998;28;20048;-64
2022/02/18 09:45:07;;;;;;;9.07;2.30;;;9.90;99.90;;;;;;5069617;28;20024;-64
2022/02/18 09:47:33;;;;;;;7.47;2.15;;;9.90;99.90;;;;;;5069347;28;20430;-64
2022/02/18 09:50:01;;;;;;;3.42;2.08;;;10.00;99.90;;;;;;5069040;28;20055;-63
2022/02/18 09:52:27;;;;;;;4.68;1.95;;;10.00;99.90;;;;;;5068666;28;20044;-64
2022/02/18 09:54:53;;;;;;;2.80;1.48;;;10.00;99.90;;;;;;5065802;28;20056;-64
2022/02/18 09:57:19;;;;;;;5.40;1.70;;;10.10;99.90;;;;;;5068550;28;20052;-64
2022/02/18 09:59:45;;;;;;;4.38;1.42;;;10.10;99.90;;;;;;5068501;28;20021;-64
2022/02/18 10:02:13;;;;;;;5.50;1.52;;;10.10;99.90;;;;;;5068325;28;20381;-64
2022/02/18 10:04:39;;;;;;;4.97;1.70;;;10.20;99.90;;;;;;5068499;28;20025;-64
2022/02/18 10:07:06;;;;;;;4.25;1.67;;;10.20;99.90;;;;;;5067169;28;20510;-64
2022/02/18 10:09:36;;;;;;;3.42;1.60;;;10.20;99.90;;;;;;5067744;28;20036;-64
2022/02/18 10:12:02;;;;;;;;;;;10.30;99.90;;;;;;5069819;28;20033;-64
2022/02/18 10:14:55;;;;;;;3.85;1.33;;;10.30;99.90;;;;;;5064861;28;19918;-64
2022/02/18 10:17:21;;;;;;;5.22;1.30;;;10.30;99.90;;;;;;5057833;28;20021;-64
2022/02/18 10:19:54;;;;;;;3.33;0.93;;;10.40;99.90;;;;;;5063595;28;21271;-64
2022/02/18 10:22:27;;;;;;;3.80;1.10;;;10.50;99.90;;;;;;5064585;28;20106;-64
2022/02/18 10:24:54;;;;;;;4.82;1.23;;;10.50;99.90;;;;;;5064775;28;20128;-64
2022/02/18 10:27:41;;;;;;;2.47;1.30;;;10.50;99.90;;;;;;5064227;28;20496;-64
2022/02/18 10:30:07;;;;;;;3.03;1.38;;;10.60;99.90;;;;;;5064058;28;20136;-64
2022/02/18 10:32:39;;;;;;;5.82;1.67;;;10.60;99.90;;;;;;5063491;28;20124;-64
2022/02/18 10:35:05;;;;;;;4.50;1.25;;;10.60;99.90;;;;;;5064054;28;20059;-64
2022/02/18 10:37:34;;;;;;;3.65;1.40;;;10.70;99.90;;;;;;5069046;28;20485;-64
2022/02/18 10:40:10;;;;;;;2.58;1.08;;;10.70;99.90;;;;;;5068871;28;20055;-64
2022/02/18 10:42:36;;;;;;;3.10;1.13;;;10.80;99.90;;;;;;5058735;28;20601;-64
2022/02/18 10:45:12;;;;;;;3.55;1.42;;;10.80;99.90;;;;;;5071217;28;20039;-64
2022/02/18 10:47:42;;;;;;;2.33;1.08;;;10.90;99.90;;;;;;5071494;28;20511;-64
2022/02/18 10:50:21;;;;;;;4.10;1.13;;;10.90;99.90;;;;;;5068142;28;20103;-64
2022/02/18 10:53:10;;;;;;;2.70;1.20;;;11.00;99.90;;;;;;5070446;28;20039;-64
2022/02/18 10:55:49;;;;;;;2.08;1.08;;;11.10;99.90;;;;;;5067073;28;20020;-64
2022/02/18 10:58:24;;;;;;;1.75;0.80;;;11.20;99.90;;;;;;5067427;28;20643;-64
2022/02/18 11:01:12;;;;;;;2.53;1.25;;;11.20;99.90;;;;;;5069020;28;20027;-64
2022/02/18 11:03:39;;;;;;;2.53;1.08;;;11.30;99.90;;;;;;5069924;28;20396;-64
2022/02/18 11:06:21;;;;;;;1.25;0.90;;;11.40;99.90;;;;;;5068543;28;20510;-64
2022/02/18 11:09:01;;;;;;;1.95;0.80;;;11.40;99.90;;;;;;5068016;28;20037;-64
2022/02/18 11:11:32;;;;;;;1.60;0.77;;;11.50;99.90;;;;;;5070822;28;20044;-63
2022/02/18 11:13:59;;;;;;;1.63;0.65;;;11.60;99.90;;;;;;5066092;28;20036;-64
2022/02/18 11:16:28;;;;;;;2.00;0.73;;;11.60;99.90;;;;;;5067421;28;20162;-64
2022/02/18 11:18:56;;;;;;;1.50;0.60;;;11.70;99.90;;;;;;5069246;28;20027;-63
2022/02/18 11:21:21;;;;;;;2.17;0.75;;;11.70;99.90;;;;;;5068997;28;20527;-63
2022/02/18 11:23:48;;;;;;;2.20;0.60;;;11.80;99.90;;;;;;5067203;28;20037;-64
2022/02/18 11:26:16;;;;;;;2.15;0.82;;;11.90;99.90;;;;;;5071307;28;20384;-63
2022/02/18 11:28:43;;;;;;;2.03;0.70;;;11.90;99.90;;;;;;5070804;28;20381;-64
2022/02/18 11:31:16;;;;;;;1.77;0.50;;;12.00;99.90;;;;;;5070867;28;20025;-64
2022/02/18 11:34:10;;;;;;;1.52;0.50;;;12.10;99.90;;;;;;5072089;28;20020;-64
2022/02/18 11:36:54;;;;;;;0.82;0.40;;;12.10;99.90;;;;;;5070445;28;20421;-64
2022/02/18 11:39:41;;;;;;;3.25;0.60;;;12.10;99.90;;;;;;5070900;28;20043;-64
2022/02/18 11:42:40;;;;;;;1.05;0.40;;;12.20;99.90;;;;;;5070163;28;20028;-64
2022/02/18 11:45:17;;;;;;;1.67;0.38;;;12.20;99.90;;;;;;5071578;28;20039;-64
2022/02/18 11:47:43;;;;;;;2.63;0.50;;;12.20;99.90;;;;;;5070743;28;20434;-61
2022/02/18 11:50:12;;;;;;;1.50;0.50;;;12.30;99.90;;;;;;5071555;28;20064;-61
2022/02/18 11:52:41;;;;;;;0.80;0.40;;;12.30;99.90;;;;;;5070770;28;20038;-60
2022/02/18 11:55:37;;;;;;;1.23;0.50;;;12.40;99.90;;;;;;5072354;28;20020;-61
2022/02/18 11:58:12;;;;;;;1.10;0.57;;;12.50;99.90;;;;;;5070610;28;20087;-61
2022/02/18 12:00:42;;;;;;;1.90;0.47;;;12.50;99.90;;;;;;5070729;28;20017;-61
2022/02/18 12:03:10;;;;;;;;;;;12.50;99.90;;;;;;5071046;28;20032;-61
2022/02/18 12:05:36;;;;;;;0.98;0.55;;;12.60;99.90;;;;;;5067756;28;20284;-60
2022/02/18 12:08:01;;;;;;;1.15;0.50;;;12.60;99.90;;;;;;5070474;28;20338;-61
2022/02/18 12:10:29;;;;;;;0.75;0.50;;;12.60;99.90;;;;;;5070491;28;20400;-61
2022/02/18 12:13:09;;;;;;;1.35;0.77;;;12.70;99.90;;;;;;5071508;28;20125;-61
2022/02/18 12:15:35;;;;;;;;;;;12.70;99.90;;;;;;5068812;28;20067;-61
2022/02/18 12:18:03;;;;;;;2.70;0.50;;;12.80;99.90;;;;;;5067144;28;19908;-61
2022/02/18 12:20:34;;;;;;;3.55;0.55;;;12.80;99.90;;;;;;5068529;28;20056;-61
2022/02/18 12:23:29;;;;;;;2.05;0.85;;;12.80;99.90;;;;;;5065620;28;20442;-61
2022/02/18 12:26:17;;;;;;;1.08;0.50;;;12.80;99.90;;;;;;5059075;28;20542;-61
2022/02/18 12:28:43;;;;;;;1.60;0.60;;;12.90;99.90;;;;;;5080766;28;20472;-61
2022/02/18 12:31:09;;;;;;;2.08;0.60;;;12.80;99.90;;;;;;5065058;28;21631;-61
2022/02/18 12:33:37;;;;;;;1.02;0.40;;;12.90;99.90;;;;;;5066887;28;20023;-61
2022/02/18 12:36:07;;;;;;;1.20;0.60;;;12.90;99.90;;;;;;5069703;28;20021;-61
2022/02/18 12:38:32;;;;;;;4.20;0.73;;;12.80;99.90;;;;;;5069479;28;20029;-61
2022/02/18 12:40:58;;;;;;;1.63;0.60;;;12.70;99.90;;;;;;5069612;28;20036;-61
2022/02/18 12:43:23;;;;;;;1.30;0.50;;;12.50;99.90;;;;;;5067441;28;20032;-61
2022/02/18 12:45:49;;;;;;;1.20;0.55;;;12.40;99.90;;;;;;5065054;28;20043;-61
2022/02/18 12:48:29;;;;;;;1.27;0.55;;;12.30;99.90;;;;;;5066303;28;20116;-61